Time;durP1;ratioP1;P1;durP2;ratioP2;P2;SDS_P1;SDS_P2;PMS_P1;PMS_P2;Temp;Humidity;BMP_temperature;BMP_pressure;BME280_temperature;BME280_humidity;BME280_pressure;Samples;Min_cycle;Max_cycle;Signal;HPM_P1;HPM_P2
2021/08/05 00:02:12;;;;;;;12.27;5.73;;;14.90;89.40;;;;;;5055718;28;20547;-86
2021/08/05 00:04:38;;;;;;;13.57;4.63;;;14.90;89.40;;;;;;5055261;28;20191;-86
2021/08/05 00:07:05;;;;;;;12.63;5.43;;;14.90;89.40;;;;;;5073397;28;20172;-86
2021/08/05 00:09:31;;;;;;;5.03;4.50;;;14.80;89.40;;;;;;5073245;28;20670;-86
2021/08/05 00:11:57;;;;;;;11.70;4.70;;;14.80;89.70;;;;;;5073250;28;20186;-86
2021/08/05 00:14:23;;;;;;;10.93;5.33;;;14.70;89.90;;;;;;5073462;28;20191;-86
2021/08/05 00:16:49;;;;;;;15.20;5.30;;;14.70;90.10;;;;;;5055194;28;20195;-85
2021/08/05 00:19:15;;;;;;;5.97;5.30;;;14.70;90.10;;;;;;5073482;28;20222;-86
2021/08/05 00:21:40;;;;;;;8.40;5.13;;;14.70;90.10;;;;;;5073096;28;20164;-85
2021/08/05 00:24:06;;;;;;;8.43;5.37;;;14.70;90.20;;;;;;5073133;28;20210;-86
2021/08/05 00:26:31;;;;;;;11.10;5.27;;;14.70;90.20;;;;;;5073412;28;20179;-85
2021/08/05 00:28:57;;;;;;;9.03;4.80;;;14.70;90.20;;;;;;5055115;28;20179;-85
2021/08/05 00:31:23;;;;;;;7.90;4.83;;;14.70;90.20;;;;;;5055160;28;20199;-86
2021/08/05 00:33:48;;;;;;;9.50;5.43;;;14.70;90.20;;;;;;5072949;28;20678;-86
2021/08/05 00:36:14;;;;;;;6.63;4.97;;;14.70;90.10;;;;;;5072901;28;20191;-86
2021/08/05 00:38:40;;;;;;;6.03;4.90;;;14.70;90.10;;;;;;5054842;28;20175;-86
2021/08/05 00:41:06;;;;;;;7.43;4.60;;;14.80;90.00;;;;;;5055262;28;20167;-86
2021/08/05 00:43:34;;;;;;;8.17;4.80;;;14.80;90.00;;;;;;5054847;28;20207;-85
2021/08/05 00:46:00;;;;;;;6.63;4.60;;;14.90;89.70;;;;;;5072869;28;20634;-86
2021/08/05 00:48:26;;;;;;;8.50;5.10;;;14.80;89.50;;;;;;5072736;28;20594;-86
2021/08/05 00:50:52;;;;;;;5.83;4.90;;;14.80;89.40;;;;;;5055120;28;20179;-86
2021/08/05 00:53:18;;;;;;;9.53;4.90;;;14.70;89.60;;;;;;5073006;28;20195;-86
2021/08/05 00:55:45;;;;;;;6.10;5.53;;;14.70;89.80;;;;;;5054658;28;20199;-86
2021/08/05 00:58:11;;;;;;;7.17;5.03;;;14.60;89.90;;;;;;5055652;28;20254;-86
2021/08/05 01:00:38;;;;;;;6.00;5.27;;;14.60;89.80;;;;;;5072598;28;20598;-86
2021/08/05 01:03:16;;;;;;;5.23;4.73;;;14.60;89.90;;;;;;5054650;28;20191;-85
2021/08/05 01:05:46;;;;;;;7.03;5.17;;;14.50;89.90;;;;;;5054750;28;20169;-86
2021/08/05 01:08:18;;;;;;;8.50;5.17;;;14.50;90.00;;;;;;5056009;28;20591;-86
2021/08/05 01:10:49;;;;;;;6.40;5.40;;;14.60;89.90;;;;;;5058388;28;20168;-86
2021/08/05 01:13:23;;;;;;;11.23;5.73;;;14.60;89.80;;;;;;5058294;28;20617;-86
2021/08/05 01:15:51;;;;;;;8.17;5.13;;;14.60;89.80;;;;;;5058261;28;20655;-85
2021/08/05 01:18:26;;;;;;;8.13;5.60;;;14.60;89.70;;;;;;5058049;28;20182;-86
2021/08/05 01:20:52;;;;;;;6.60;5.43;;;14.60;89.70;;;;;;5058105;28;20663;-86
2021/08/05 01:23:30;;;;;;;9.87;6.00;;;14.60;89.90;;;;;;5075830;28;20289;-86
2021/08/05 01:26:24;;;;;;;5.10;4.57;;;14.60;89.90;;;;;;5058053;28;20164;-86
2021/08/05 01:28:50;;;;;;;7.80;4.20;;;14.60;89.60;;;;;;5076120;28;20191;-86
2021/08/05 01:31:20;;;;;;;7.97;4.47;;;14.70;89.70;;;;;;5058520;28;20556;-86
2021/08/05 01:33:47;;;;;;;9.00;4.63;;;14.70;89.60;;;;;;5075690;28;20183;-86
2021/08/05 01:36:13;;;;;;;5.60;4.07;;;14.70;89.40;;;;;;5057814;28;20199;-86
2021/08/05 01:38:41;;;;;;;4.50;4.03;;;14.70;89.30;;;;;;5075983;28;20167;-86
2021/08/05 01:41:08;;;;;;;4.57;4.17;;;14.70;89.20;;;;;;5057661;28;20651;-86
2021/08/05 01:43:37;;;;;;;7.83;4.63;;;14.80;89.00;;;;;;5057415;28;20706;-86
2021/08/05 01:46:03;;;;;;;7.77;3.80;;;14.70;88.80;;;;;;5057625;28;20270;-86
2021/08/05 01:48:31;;;;;;;9.93;5.40;;;14.80;88.70;;;;;;5075408;28;20175;-86
2021/08/05 01:50:58;;;;;;;9.37;5.47;;;14.80;88.80;;;;;;5057351;28;20179;-86
2021/08/05 01:53:24;;;;;;;5.93;5.17;;;14.80;89.20;;;;;;5075310;28;20191;-85
2021/08/05 01:55:50;;;;;;;6.00;5.00;;;14.80;89.40;;;;;;5057266;28;20261;-86
2021/08/05 01:58:15;;;;;;;9.83;5.90;;;14.80;89.50;;;;;;5057340;28;20655;-86
2021/08/05 02:00:41;;;;;;;10.00;5.97;;;14.70;89.70;;;;;;5057417;28;20265;-86
2021/08/05 02:03:12;;;;;;;7.80;5.40;;;14.70;89.90;;;;;;5057077;28;20209;-86
2021/08/05 02:05:54;;;;;;;6.77;5.97;;;14.70;90.10;;;;;;5057201;28;20183;-86
2021/08/05 02:08:25;;;;;;;7.90;6.37;;;14.70;90.10;;;;;;5057191;28;20167;-86
2021/08/05 02:10:51;;;;;;;7.23;5.77;;;14.60;90.20;;;;;;5057196;28;20624;-86
2021/08/05 02:13:35;;;;;;;12.20;5.70;;;14.60;90.20;;;;;;5056966;28;20195;-86
2021/08/05 02:16:04;;;;;;;7.70;5.57;;;14.70;90.20;;;;;;5074889;28;20656;-85
2021/08/05 02:18:32;;;;;;;10.47;5.67;;;14.70;90.20;;;;;;5080143;23;20725;-91
2021/08/05 02:21:00;;;;;;;7.47;5.10;;;14.60;90.30;;;;;;5073928;28;20189;-92
2021/08/05 02:23:27;;;;;;;8.97;5.30;;;14.60;90.30;;;;;;5073714;28;20179;-92
2021/08/05 02:25:54;;;;;;;6.07;5.50;;;14.60;90.40;;;;;;5074811;28;20175;-92
2021/08/05 02:28:23;;;;;;;8.50;5.40;;;14.60;90.30;;;;;;5073689;28;20203;-92
2021/08/05 02:30:51;;;;;;;7.63;5.40;;;14.70;90.30;;;;;;5056804;28;20175;-92
2021/08/05 02:33:18;;;;;;;7.33;5.33;;;14.70;90.40;;;;;;5056856;28;20167;-92
2021/08/05 02:35:47;;;;;;;9.90;5.00;;;14.60;90.30;;;;;;5056802;28;20207;-91
2021/08/05 02:38:13;;;;;;;7.10;4.73;;;14.70;90.30;;;;;;5056823;28;20667;-91
2021/08/05 02:40:40;;;;;;;8.13;5.53;;;14.60;90.30;;;;;;5056685;28;20254;-90
2021/08/05 02:43:08;;;;;;;6.93;5.10;;;14.60;90.40;;;;;;5056670;28;20171;-90
2021/08/05 02:45:35;;;;;;;8.37;5.10;;;14.60;90.40;;;;;;5056529;28;20186;-92
2021/08/05 02:48:03;;;;;;;5.80;4.80;;;14.60;90.40;;;;;;5056367;28;20208;-92
2021/08/05 02:50:30;;;;;;;10.70;4.43;;;14.60;90.40;;;;;;5056903;28;20183;-92
2021/08/05 02:52:56;;;;;;;8.17;5.03;;;14.70;90.40;;;;;;5056453;28;20172;-91
2021/08/05 02:55:23;;;;;;;11.50;5.33;;;14.60;90.40;;;;;;5056196;28;20271;-92
2021/08/05 02:57:51;;;;;;;7.20;4.93;;;14.60;90.40;;;;;;5056250;28;20196;-92
2021/08/05 03:00:17;;;;;;;8.70;5.57;;;14.50;90.50;;;;;;5056280;28;20670;-92
2021/08/05 03:02:43;;;;;;;9.37;4.87;;;14.60;90.60;;;;;;5056372;28;20198;-92
2021/08/05 03:05:09;;;;;;;6.50;4.63;;;14.50;90.80;;;;;;5056182;28;20647;-91
2021/08/05 03:07:35;;;;;;;8.37;5.13;;;14.50;91.00;;;;;;5056127;28;20282;-92
2021/08/05 03:10:02;;;;;;;7.07;4.70;;;14.50;91.00;;;;;;5056150;28;20705;-92
2021/08/05 03:12:27;;;;;;;8.43;4.80;;;14.50;91.00;;;;;;5056073;28;20176;-92
2021/08/05 03:14:53;;;;;;;10.03;4.87;;;14.50;91.00;;;;;;5056004;28;20267;-90
2021/08/05 03:17:18;;;;;;;7.50;4.80;;;14.60;91.00;;;;;;5055792;28;20226;-92
2021/08/05 03:19:44;;;;;;;8.77;4.80;;;14.60;91.00;;;;;;5056328;28;20194;-92
2021/08/05 03:22:10;;;;;;;9.00;4.20;;;14.60;90.90;;;;;;5056094;28;20187;-90
2021/08/05 03:24:35;;;;;;;6.47;4.50;;;14.60;90.80;;;;;;5056191;28;20182;-92
2021/08/05 03:27:01;;;;;;;5.03;3.63;;;14.70;90.80;;;;;;5055952;28;20203;-92
2021/08/05 03:29:27;;;;;;;11.90;5.53;;;14.70;90.80;;;;;;5056879;28;20663;-92
2021/08/05 03:31:52;;;;;;;8.67;4.13;;;14.70;90.70;;;;;;5055349;28;20225;-92
2021/08/05 03:34:18;;;;;;;9.93;4.37;;;14.70;90.80;;;;;;5073700;28;20552;-92
2021/08/05 03:36:44;;;;;;;11.17;4.47;;;14.70;90.70;;;;;;5055616;28;20199;-92
2021/08/05 03:39:09;;;;;;;9.77;4.63;;;14.70;90.60;;;;;;5055682;28;20206;-91
2021/08/05 03:41:35;;;;;;;13.30;4.50;;;14.70;90.70;;;;;;5055712;28;20210;-92
2021/08/05 03:44:00;;;;;;;6.53;4.30;;;14.70;90.60;;;;;;5055656;28;20210;-92
2021/08/05 03:46:26;;;;;;;8.43;4.27;;;14.80;90.50;;;;;;5055663;28;20171;-90
2021/08/05 03:48:52;;;;;;;4.23;3.77;;;14.80;90.50;;;;;;5055466;28;20233;-92
2021/08/05 03:51:18;;;;;;;5.30;4.00;;;14.80;90.60;;;;;;5055563;28;20179;-90
2021/08/05 03:53:43;;;;;;;10.00;3.60;;;14.90;90.50;;;;;;5055604;28;20186;-90
2021/08/05 03:56:09;;;;;;;5.30;3.57;;;15.00;90.20;;;;;;5055453;28;20781;-91
2021/08/05 03:58:35;;;;;;;10.07;3.80;;;14.90;90.00;;;;;;5055985;28;20558;-92
2021/08/05 04:01:00;;;;;;;4.73;3.10;;;14.90;89.90;;;;;;5055390;28;20171;-92
2021/08/05 04:03:26;;;;;;;6.30;3.23;;;14.80;89.80;;;;;;5055424;28;20578;-92
2021/08/05 04:05:52;;;;;;;5.73;3.70;;;14.90;89.80;;;;;;5055420;28;20201;-92
2021/08/05 04:08:17;;;;;;;4.30;3.50;;;14.90;89.50;;;;;;5055305;28;20241;-89
2021/08/05 04:10:43;;;;;;;4.80;3.57;;;14.80;89.40;;;;;;5055307;28;20176;-92
2021/08/05 04:13:08;;;;;;;7.90;3.50;;;15.00;89.40;;;;;;5055426;28;20179;-92
2021/08/05 04:15:34;;;;;;;5.47;3.50;;;15.00;89.20;;;;;;5055307;28;20195;-92
2021/08/05 04:18:00;;;;;;;3.70;2.90;;;15.00;89.30;;;;;;5055103;28;20294;-90
2021/08/05 04:20:25;;;;;;;4.07;3.10;;;15.00;89.40;;;;;;5055370;28;20168;-92
2021/08/05 04:22:51;;;;;;;12.50;3.13;;;15.10;89.30;;;;;;5055273;28;20187;-92
2021/08/05 04:25:17;;;;;;;7.60;3.30;;;15.00;89.20;;;;;;5055591;28;20551;-90
2021/08/05 04:27:43;;;;;;;5.50;3.17;;;15.00;89.20;;;;;;5055119;28;20195;-89
2021/08/05 04:30:11;;;;;;;7.00;3.13;;;15.00;88.80;;;;;;5055204;28;20179;-92
2021/08/05 04:32:38;;;;;;;3.53;2.87;;;15.00;88.70;;;;;;5055375;28;20182;-92
2021/08/05 04:35:06;;;;;;;7.13;2.87;;;14.90;88.40;;;;;;5055316;28;20225;-92
2021/08/05 04:37:32;;;;;;;3.17;2.87;;;15.00;88.50;;;;;;5054896;28;20214;-92
2021/08/05 04:39:57;;;;;;;5.13;3.20;;;14.90;88.40;;;;;;5055026;28;20172;-92
2021/08/05 04:42:23;;;;;;;5.57;2.93;;;15.00;88.50;;;;;;5056864;28;20167;-92
2021/08/05 04:44:48;;;;;;;5.80;2.67;;;14.90;88.30;;;;;;5058871;28;20178;-92
2021/08/05 04:47:14;;;;;;;4.00;2.90;;;14.90;88.30;;;;;;5058845;28;20202;-92
2021/08/05 04:49:40;;;;;;;5.73;3.87;;;14.90;88.40;;;;;;5058836;28;20266;-92
2021/08/05 04:52:06;;;;;;;6.03;2.80;;;14.90;88.40;;;;;;5058725;28;20176;-92
2021/08/05 04:54:34;;;;;;;10.07;3.20;;;14.90;88.30;;;;;;5058727;28;20186;-92
2021/08/05 04:57:00;;;;;;;9.03;3.20;;;14.90;88.10;;;;;;5058606;28;20207;-92
2021/08/05 04:59:26;;;;;;;4.93;3.17;;;15.00;88.20;;;;;;5058718;28;20189;-92
2021/08/05 05:01:52;;;;;;;5.47;3.10;;;15.00;88.20;;;;;;5058563;28;20361;-92
2021/08/05 05:04:17;;;;;;;5.70;2.80;;;15.00;88.20;;;;;;5058629;28;20221;-92
2021/08/05 05:06:43;;;;;;;11.90;3.13;;;15.00;88.00;;;;;;5058548;28;20177;-92
2021/08/05 05:09:09;;;;;;;3.70;2.47;;;15.00;87.80;;;;;;5076310;28;20195;-92
2021/08/05 05:11:34;;;;;;;7.67;2.80;;;15.00;87.80;;;;;;5058492;28;20175;-92
2021/08/05 05:14:00;;;;;;;4.13;2.83;;;15.10;87.40;;;;;;5058415;28;20201;-92
2021/08/05 05:16:26;;;;;;;10.17;3.00;;;15.10;87.60;;;;;;5058181;28;20199;-92
2021/08/05 05:18:51;;;;;;;4.50;2.80;;;15.20;87.30;;;;;;5058194;28;20222;-92
2021/08/05 05:21:17;;;;;;;3.73;2.70;;;15.20;87.50;;;;;;5058266;28;20543;-92
2021/08/05 05:23:43;;;;;;;5.93;2.33;;;15.20;87.50;;;;;;5058206;28;20227;-92
2021/08/05 05:26:09;;;;;;;2.70;2.50;;;15.20;87.40;;;;;;5058116;28;20179;-92
2021/08/05 05:28:36;;;;;;;4.00;2.60;;;15.20;87.40;;;;;;5058056;28;20202;-92
2021/08/05 05:31:02;;;;;;;12.67;8.77;;;15.30;86.90;;;;;;5058091;28;20183;-92
2021/08/05 05:33:28;;;;;;;4.83;2.60;;;15.30;87.20;;;;;;5057998;28;20662;-92
2021/08/05 05:35:54;;;;;;;4.50;2.73;;;15.30;87.00;;;;;;5057799;28;20294;-92
2021/08/05 05:38:21;;;;;;;8.10;2.90;;;15.30;86.70;;;;;;5057950;28;20297;-93
2021/08/05 05:40:46;;;;;;;6.07;2.80;;;15.30;86.10;;;;;;5057975;28;20187;-92
2021/08/05 05:43:13;;;;;;;3.07;2.53;;;15.40;86.00;;;;;;5057804;28;20556;-92
2021/08/05 05:45:39;;;;;;;7.63;2.87;;;15.40;86.10;;;;;;5057705;28;20703;-92
2021/08/05 05:48:06;;;;;;;2.40;2.20;;;15.40;86.00;;;;;;5057642;28;20203;-92
2021/08/05 05:50:32;;;;;;;7.43;2.67;;;15.50;86.00;;;;;;5057603;28;20561;-92
2021/08/05 05:52:58;;;;;;;5.17;2.80;;;15.50;85.50;;;;;;5058142;28;20321;-92
2021/08/05 05:55:25;;;;;;;4.40;2.43;;;15.60;85.70;;;;;;5074991;28;20657;-92
2021/08/05 05:57:50;;;;;;;6.30;3.00;;;15.60;85.40;;;;;;5057463;28;20202;-92
2021/08/05 06:00:16;;;;;;;3.43;2.93;;;15.70;85.30;;;;;;5057477;28;20176;-92
2021/08/05 06:02:42;;;;;;;5.70;2.80;;;15.70;85.40;;;;;;5057531;28;20179;-92
2021/08/05 06:05:09;;;;;;;4.70;2.55;;;15.80;85.10;;;;;;5057592;28;20534;-92
2021/08/05 06:07:47;;;;;;;3.77;2.43;;;15.80;84.30;;;;;;5057327;28;20246;-92
2021/08/05 06:10:15;;;;;;;4.25;2.88;;;15.80;84.60;;;;;;5057328;28;20650;-93
2021/08/05 06:12:41;;;;;;;5.95;2.55;;;15.90;84.50;;;;;;5057406;28;20585;-92
2021/08/05 06:15:09;;;;;;;7.93;2.42;;;15.90;83.80;;;;;;5040931;28;20207;-92
2021/08/05 06:17:35;;;;;;;5.60;2.70;;;16.00;84.20;;;;;;5057498;28;20284;-92
2021/08/05 06:20:02;;;;;;;7.70;2.90;;;16.00;83.30;;;;;;5057072;28;20172;-92
2021/08/05 06:22:28;;;;;;;7.73;2.60;;;16.10;83.80;;;;;;5057478;28;20175;-92
2021/08/05 06:24:54;;;;;;;5.63;2.72;;;16.00;83.30;;;;;;5057386;28;20274;-92
2021/08/05 06:27:22;;;;;;;3.00;2.42;;;16.10;82.60;;;;;;5056933;28;20199;-92
2021/08/05 06:29:49;;;;;;;3.92;2.67;;;16.20;82.70;;;;;;5057019;28;20178;-92
2021/08/05 06:32:15;;;;;;;10.65;2.60;;;16.20;83.50;;;;;;5056822;28;20179;-91
2021/08/05 06:34:41;;;;;;;4.53;3.20;;;16.30;82.70;;;;;;5057392;28;20528;-92
2021/08/05 06:37:06;;;;;;;3.08;2.58;;;16.40;82.00;;;;;;5056723;28;20207;-92
2021/08/05 06:39:32;;;;;;;2.60;2.38;;;16.50;81.80;;;;;;5056800;28;20175;-92
2021/08/05 06:41:58;;;;;;;2.60;2.40;;;16.50;81.20;;;;;;5056659;28;20175;-92
2021/08/05 06:44:23;;;;;;;5.10;3.28;;;16.60;80.90;;;;;;5056696;28;20182;-92
2021/08/05 06:46:49;;;;;;;4.70;2.80;;;16.60;81.80;;;;;;5056468;28;20207;-92
2021/08/05 06:49:15;;;;;;;6.65;3.00;;;16.70;81.00;;;;;;5056597;28;20179;-92
2021/08/05 06:51:40;;;;;;;4.80;3.03;;;16.80;81.10;;;;;;5056604;28;20176;-92
2021/08/05 06:54:06;;;;;;;4.25;3.03;;;16.90;81.20;;;;;;5056458;28;20175;-91
2021/08/05 06:56:32;;;;;;;5.13;3.55;;;16.90;80.40;;;;;;5056337;28;20203;-92
2021/08/05 06:58:57;;;;;;;6.75;2.83;;;17.00;80.00;;;;;;5074297;28;20167;-92
2021/08/05 07:01:23;;;;;;;4.78;2.97;;;17.20;79.60;;;;;;5057015;28;20186;-93
2021/08/05 07:03:49;;;;;;;6.70;3.08;;;17.40;79.60;;;;;;5058081;28;20611;-92
2021/08/05 07:06:15;;;;;;;3.53;2.90;;;17.50;77.30;;;;;;5057323;28;20183;-93
2021/08/05 07:08:40;;;;;;;6.75;2.83;;;17.70;77.40;;;;;;5064099;28;20199;-93
2021/08/05 07:11:06;;;;;;;5.32;2.33;;;17.80;77.00;;;;;;5066225;28;20213;-94
2021/08/05 07:13:32;;;;;;;8.20;3.00;;;18.20;76.10;;;;;;5064287;28;20178;-93
2021/08/05 07:15:57;;;;;;;6.35;3.25;;;18.30;75.60;;;;;;5061765;28;20213;-94
2021/08/05 07:18:23;;;;;;;15.80;3.15;;;18.50;76.20;;;;;;5062203;28;20203;-94
2021/08/05 07:20:49;;;;;;;3.78;3.03;;;18.50;75.10;;;;;;5066090;28;20179;-94
2021/08/05 07:23:14;;;;;;;3.05;2.72;;;18.50;73.10;;;;;;5059583;28;20167;-89
2021/08/05 07:25:40;;;;;;;5.78;2.67;;;18.50;74.10;;;;;;5055945;28;20262;-90
2021/08/05 07:28:05;;;;;;;5.00;3.05;;;18.60;73.90;;;;;;5056269;28;20191;-89
2021/08/05 07:30:31;;;;;;;8.05;3.17;;;18.70;73.50;;;;;;5055946;28;20681;-90
2021/08/05 07:32:59;;;;;;;5.40;2.83;;;18.70;74.10;;;;;;5055568;28;20183;-89
2021/08/05 07:35:25;;;;;;;6.45;3.28;;;18.80;73.40;;;;;;5055533;28;20175;-89
2021/08/05 07:37:50;;;;;;;13.85;3.25;;;18.80;72.20;;;;;;5055599;28;20641;-89
2021/08/05 07:40:16;;;;;;;6.22;3.00;;;18.90;73.00;;;;;;5055569;28;20228;-89
2021/08/05 07:42:42;;;;;;;5.93;3.42;;;18.80;71.90;;;;;;5055590;28;20174;-90
2021/08/05 07:45:09;;;;;;;7.60;3.38;;;18.90;73.50;;;;;;5055538;28;20171;-90
2021/08/05 07:47:34;;;;;;;5.40;3.38;;;19.00;73.60;;;;;;5055502;28;20195;-90
2021/08/05 07:50:00;;;;;;;5.35;3.50;;;19.00;73.10;;;;;;5073348;28;20221;-91
2021/08/05 07:52:26;;;;;;;7.18;3.65;;;19.10;72.60;;;;;;5055413;28;20183;-90
2021/08/05 07:54:51;;;;;;;7.30;3.20;;;19.20;72.40;;;;;;5055422;28;20183;-90
2021/08/05 07:57:17;;;;;;;5.25;3.00;;;19.30;72.70;;;;;;5056366;28;20219;-89
2021/08/05 07:59:45;;;;;;;8.20;3.53;;;19.40;72.70;;;;;;5055282;28;20547;-89
2021/08/05 08:02:11;;;;;;;13.20;3.97;;;19.50;70.90;;;;;;5055523;28;20175;-90
2021/08/05 08:04:36;;;;;;;3.58;2.90;;;19.50;72.20;;;;;;5056015;28;20167;-89
2021/08/05 08:07:04;;;;;;;4.95;3.05;;;19.60;71.40;;;;;;5055204;28;20199;-90
2021/08/05 08:09:30;;;;;;;6.65;2.97;;;19.70;71.30;;;;;;5073492;28;20163;-90
2021/08/05 08:11:55;;;;;;;4.30;3.38;;;19.60;71.60;;;;;;5055495;28;20183;-90
2021/08/05 08:14:21;;;;;;;9.02;3.50;;;19.50;72.00;;;;;;5055243;28;20214;-91
2021/08/05 08:16:47;;;;;;;6.53;3.22;;;19.60;72.20;;;;;;5073461;28;20207;-90
2021/08/05 08:19:13;;;;;;;4.53;3.38;;;19.60;72.70;;;;;;5166351;22;20265;-85
2021/08/05 08:21:38;;;;;;;6.13;3.50;;;19.70;71.70;;;;;;5060472;28;20627;-85
2021/08/05 08:24:04;;;;;;;4.82;3.80;;;19.80;71.50;;;;;;5078219;28;20577;-85
2021/08/05 08:26:30;;;;;;;5.43;3.30;;;19.90;70.60;;;;;;5078170;28;20186;-86
2021/08/05 08:28:56;;;;;;;4.25;3.58;;;20.00;70.90;;;;;;5059788;28;20199;-85
2021/08/05 08:31:22;;;;;;;5.28;3.45;;;20.20;70.20;;;;;;5077402;28;20182;-85
2021/08/05 08:33:48;;;;;;;6.60;3.33;;;20.30;69.40;;;;;;5078016;28;20199;-85
2021/08/05 08:36:14;;;;;;;4.63;3.80;;;20.30;69.10;;;;;;5076867;28;20667;-85
2021/08/05 08:38:42;;;;;;;7.43;3.42;;;20.50;70.00;;;;;;5077471;28;20183;-90
2021/08/05 08:41:08;;;;;;;6.85;3.67;;;20.50;69.00;;;;;;5077686;28;20538;-88
2021/08/05 08:43:34;;;;;;;4.38;3.33;;;20.60;69.30;;;;;;5061709;28;20190;-87
2021/08/05 08:46:00;;;;;;;7.78;3.40;;;20.60;69.60;;;;;;5060832;28;20218;-88
2021/08/05 08:48:29;;;;;;;3.80;3.13;;;20.70;69.70;;;;;;5078940;28;20279;-88
2021/08/05 08:51:00;;;;;;;7.30;3.38;;;20.70;70.30;;;;;;5079688;28;20574;-87
2021/08/05 08:53:29;;;;;;;6.38;3.22;;;20.70;68.80;;;;;;5060053;28;20224;-88
2021/08/05 08:55:56;;;;;;;4.43;3.20;;;20.80;69.50;;;;;;5060298;28;20199;-88
2021/08/05 08:58:23;;;;;;;6.15;3.75;;;20.80;69.20;;;;;;5078120;28;20628;-88
2021/08/05 09:00:49;;;;;;;6.60;3.78;;;20.80;68.50;;;;;;5077037;28;20167;-88
2021/08/05 09:03:15;;;;;;;5.78;3.30;;;20.90;68.70;;;;;;5058992;28;20651;-88
2021/08/05 09:05:41;;;;;;;5.35;3.03;;;21.00;67.80;;;;;;5076899;28;20176;-89
2021/08/05 09:08:07;;;;;;;10.85;3.33;;;21.00;67.00;;;;;;5076617;28;20666;-88
2021/08/05 09:10:33;;;;;;;5.38;3.30;;;21.00;66.60;;;;;;5059326;28;20236;-88
2021/08/05 09:13:00;;;;;;;4.90;3.38;;;21.20;66.50;;;;;;5076477;28;20189;-88
2021/08/05 09:15:36;;;;;;;3.95;2.97;;;21.10;65.90;;;;;;5058862;28;20202;-88
2021/08/05 09:18:03;;;;;;;3.55;3.10;;;21.10;67.50;;;;;;5076999;28;20167;-88
2021/08/05 09:20:29;;;;;;;3.90;3.47;;;21.10;66.70;;;;;;5058956;28;20219;-88
2021/08/05 09:22:55;;;;;;;3.47;3.17;;;21.10;66.60;;;;;;5058778;28;20262;-89
2021/08/05 09:25:40;;;;;;;3.63;3.28;;;21.20;66.50;;;;;;5058367;28;20190;-88
2021/08/05 09:28:14;;;;;;;3.50;3.20;;;21.10;67.30;;;;;;5076282;28;20183;-88
2021/08/05 09:30:41;;;;;;;3.70;3.03;;;21.30;66.90;;;;;;5081297;28;20197;-87
2021/08/05 09:33:08;;;;;;;4.57;3.28;;;21.30;65.50;;;;;;5062530;28;20221;-87
2021/08/05 09:35:34;;;;;;;3.72;3.30;;;21.30;66.00;;;;;;5081646;28;20201;-87
2021/08/05 09:38:23;;;;;;;7.68;3.30;;;21.40;65.70;;;;;;5062277;28;20179;-87
2021/08/05 09:41:08;;;;;;;6.55;3.78;;;21.50;65.60;;;;;;5060938;28;20601;-87
2021/08/05 09:43:35;;;;;;;3.50;3.20;;;21.50;65.50;;;;;;5078026;28;20184;-87
2021/08/05 09:46:01;;;;;;;6.07;3.72;;;21.50;66.00;;;;;;5061483;28;20529;-87
2021/08/05 09:48:41;;;;;;;5.47;3.55;;;21.60;64.50;;;;;;5060749;28;20336;-87
2021/08/05 09:51:06;;;;;;;4.30;3.80;;;21.80;66.50;;;;;;5060889;28;20167;-87
2021/08/05 09:53:33;;;;;;;6.65;4.20;;;22.00;65.70;;;;;;5058696;28;20175;-89
2021/08/05 09:56:12;;;;;;;5.07;4.00;;;22.30;64.50;;;;;;5075765;28;20202;-90
2021/08/05 09:58:39;;;;;;;5.70;3.33;;;22.50;63.40;;;;;;5075513;28;20191;-90
2021/08/05 10:01:08;;;;;;;6.68;3.90;;;22.70;63.80;;;;;;5075459;28;20704;-90
2021/08/05 10:03:35;;;;;;;5.75;3.50;;;22.80;63.60;;;;;;5075357;28;20174;-89
2021/08/05 10:06:03;;;;;;;4.10;3.25;;;23.00;63.10;;;;;;5075633;28;20178;-90
2021/08/05 10:08:38;;;;;;;6.47;3.42;;;23.20;62.80;;;;;;5075175;28;20188;-89
2021/08/05 10:11:05;;;;;;;4.57;3.25;;;23.30;62.10;;;;;;5075143;28;20629;-89
2021/08/05 10:13:35;;;;;;;6.55;3.33;;;23.30;60.20;;;;;;5075423;28;20603;-89
2021/08/05 10:16:12;;;;;;;5.32;3.17;;;23.60;60.40;;;;;;5075091;28;20194;-89
2021/08/05 10:18:39;;;;;;;7.22;3.22;;;23.70;61.00;;;;;;5075051;28;20206;-87
2021/08/05 10:21:07;;;;;;;7.65;2.72;;;23.80;59.90;;;;;;5075502;28;20547;-88
2021/08/05 10:23:35;;;;;;;4.75;3.17;;;23.70;59.20;;;;;;5057913;28;20202;-87
2021/08/05 10:26:05;;;;;;;4.88;2.83;;;23.50;58.50;;;;;;5076318;28;20179;-88
2021/08/05 10:28:31;;;;;;;6.15;3.22;;;23.50;57.70;;;;;;5057615;28;20218;-88
2021/08/05 10:30:58;;;;;;;12.32;3.55;;;23.50;58.40;;;;;;5058498;28;20655;-88
2021/08/05 10:33:25;;;;;;;6.47;3.20;;;23.40;59.50;;;;;;5076024;28;20168;-88
2021/08/05 10:35:51;;;;;;;6.15;2.83;;;23.40;59.60;;;;;;5075581;28;20694;-88
2021/08/05 10:38:18;;;;;;;9.27;3.00;;;23.50;58.00;;;;;;5075162;28;20172;-88
2021/08/05 10:40:45;;;;;;;4.20;3.10;;;23.60;60.10;;;;;;5076190;28;20198;-87
2021/08/05 10:43:12;;;;;;;6.93;3.28;;;23.70;58.70;;;;;;5058901;28;20174;-88
2021/08/05 10:45:37;;;;;;;4.88;3.05;;;23.70;58.40;;;;;;5058625;28;20634;-88
2021/08/05 10:48:05;;;;;;;6.72;3.13;;;23.50;58.30;;;;;;5057918;28;20180;-88
2021/08/05 10:50:37;;;;;;;5.18;2.95;;;23.60;58.80;;;;;;5058537;28;20171;-88
2021/08/05 10:53:02;;;;;;;5.32;3.10;;;23.60;59.40;;;;;;5057638;28;20163;-88
2021/08/05 10:55:29;;;;;;;6.07;3.40;;;23.60;58.60;;;;;;5074738;28;20174;-88
2021/08/05 10:58:28;;;;;;;5.10;3.30;;;23.30;60.20;;;;;;5075275;28;20217;-88
2021/08/05 11:01:02;;;;;;;4.75;3.25;;;23.20;60.80;;;;;;5057236;28;20616;-90
2021/08/05 11:03:35;;;;;;;5.63;3.03;;;23.10;60.10;;;;;;5056298;28;20240;-90
2021/08/05 11:06:05;;;;;;;5.95;3.70;;;23.10;62.30;;;;;;5074107;28;20179;-90
2021/08/05 11:08:32;;;;;;;5.15;3.42;;;23.00;61.50;;;;;;5056184;28;20195;-88
2021/08/05 11:11:25;;;;;;;7.72;3.53;;;22.80;62.20;;;;;;5074335;28;20182;-89
2021/08/05 11:14:00;;;;;;;13.38;3.70;;;22.60;62.00;;;;;;5055980;28;20278;-89
2021/08/05 11:16:54;;;;;;;4.10;3.45;;;22.40;63.90;;;;;;5074095;28;20198;-89
2021/08/05 11:19:29;;;;;;;6.35;3.45;;;22.20;64.90;;;;;;5073748;28;20298;-89
2021/08/05 11:21:56;;;;;;;4.93;3.03;;;21.90;64.90;;;;;;5074120;28;20245;-90
2021/08/05 11:24:43;;;;;;;3.65;3.03;;;21.80;65.60;;;;;;5056029;28;20175;-89
2021/08/05 11:27:18;;;;;;;5.97;3.75;;;21.70;67.20;;;;;;5073684;28;20176;-89
2021/08/05 11:29:44;;;;;;;6.43;4.22;;;21.70;66.70;;;;;;5073744;28;20210;-89
2021/08/05 11:32:23;;;;;;;6.95;3.35;;;21.60;67.10;;;;;;5073735;28;20262;-90
2021/08/05 11:35:02;;;;;;;4.90;2.90;;;21.50;67.00;;;;;;5073712;28;20615;-89
2021/08/05 11:37:28;;;;;;;5.10;3.08;;;21.50;66.90;;;;;;5073728;28;20182;-89
2021/08/05 11:39:59;;;;;;;3.88;3.58;;;21.30;67.90;;;;;;5074217;28;20240;-88
2021/08/05 11:42:26;;;;;;;6.55;3.72;;;20.90;69.10;;;;;;5056815;28;20172;-88
2021/08/05 11:44:58;;;;;;;3.20;2.65;;;20.70;71.30;;;;;;5055974;28;20182;-89
2021/08/05 11:47:27;;;;;;;4.13;2.70;;;20.50;71.00;;;;;;5073486;28;20580;-89
2021/08/05 11:50:07;;;;;;;4.68;2.47;;;20.50;71.10;;;;;;5073305;28;20599;-89
2021/08/05 11:52:35;;;;;;;4.05;2.47;;;20.50;70.80;;;;;;5073192;28;20195;-88
2021/08/05 11:55:08;;;;;;;3.90;2.70;;;20.60;70.80;;;;;;5073400;28;20209;-89
2021/08/05 11:57:49;;;;;;;4.03;3.13;;;20.70;71.30;;;;;;5073633;28;20191;-89
2021/08/05 12:00:26;;;;;;;4.45;3.45;;;20.70;72.40;;;;;;5073264;28;20254;-89
2021/08/05 12:02:54;;;;;;;5.97;3.35;;;20.50;74.60;;;;;;5073379;28;20576;-89
2021/08/05 12:05:25;;;;;;;8.68;3.60;;;20.60;75.50;;;;;;5073518;28;20657;-89
2021/08/05 12:07:51;;;;;;;5.28;3.60;;;20.90;75.20;;;;;;5055353;28;20168;-89
2021/08/05 12:10:26;;;;;;;8.13;3.47;;;20.80;76.20;;;;;;5073147;28;20194;-89
2021/08/05 12:12:55;;;;;;;4.07;3.67;;;20.90;77.30;;;;;;5073156;28;20174;-89
2021/08/05 12:15:41;;;;;;;3.85;3.50;;;21.10;76.20;;;;;;5073183;28;20178;-89
2021/08/05 12:18:18;;;;;;;5.60;3.75;;;21.10;76.90;;;;;;5073112;28;20647;-90
2021/08/05 12:20:49;;;;;;;5.22;4.20;;;21.20;77.20;;;;;;5055211;28;20561;-89
2021/08/05 12:28:25;;;;;;;5.05;4.10;;;20.40;76.50;;;;;;5073312;28;20206;-89
2021/08/05 12:30:58;;;;;;;9.43;4.63;;;20.40;76.80;;;;;;5072986;28;20167;-89
2021/08/05 12:33:29;;;;;;;5.32;4.38;;;20.50;77.60;;;;;;5073057;28;20254;-89
2021/08/05 12:36:21;;;;;;;4.65;3.45;;;20.70;78.00;;;;;;5073095;28;20317;-89
2021/08/05 12:38:59;;;;;;;6.22;2.97;;;20.80;77.70;;;;;;5072985;28;20180;-89
2021/08/05 12:41:27;;;;;;;8.15;3.85;;;21.00;74.30;;;;;;5072876;28;20160;-89
2021/08/05 12:43:56;;;;;;;4.57;3.90;;;21.10;75.20;;;;;;5072796;28;20163;-89
2021/08/05 12:46:23;;;;;;;5.88;3.67;;;21.10;75.30;;;;;;5072831;28;20178;-90
2021/08/05 12:48:53;;;;;;;4.95;3.30;;;21.20;74.00;;;;;;5072720;28;20289;-89
2021/08/05 12:51:20;;;;;;;4.10;3.60;;;21.30;73.30;;;;;;5072841;28;20159;-90
2021/08/05 12:53:46;;;;;;;5.60;3.67;;;21.60;73.90;;;;;;5072712;28;20183;-90
2021/08/05 12:56:12;;;;;;;4.25;3.40;;;22.00;71.30;;;;;;5072583;28;20226;-89